sensor_id;sensor_type;location;lat;lon;timestamp;temperature;humidity
296;DHT22;132;48.770;9.200;2022-12-22T00:02:20;9.90;1.00
296;DHT22;132;48.770;9.200;2022-12-22T00:05:25;10.10;1.00
296;DHT22;132;48.770;9.200;2022-12-22T00:11:27;10.00;1.00
296;DHT22;132;48.770;9.200;2022-12-22T00:17:41;10.00;1.00
296;DHT22;132;48.770;9.200;2022-12-22T00:21:02;8.50;1.00
296;DHT22;132;48.770;9.200;2022-12-22T00:29:49;10.00;1.00
296;DHT22;132;48.770;9.200;2022-12-22T00:32:59;10.00;1.00
296;DHT22;132;48.770;9.200;2022-12-22T00:36:06;10.10;1.00
296;DHT22;132;48.770;9.200;2022-12-22T00:42:17;10.00;1.00
296;DHT22;132;48.770;9.200;2022-12-22T00:45:23;10.00;1.00
296;DHT22;132;48.770;9.200;2022-12-22T00:48:28;9.50;1.00
296;DHT22;132;48.770;9.200;2022-12-22T00:51:33;11.30;1.00
296;DHT22;132;48.770;9.200;2022-12-22T00:54:38;9.90;1.00
296;DHT22;132;48.770;9.200;2022-12-22T00:57:44;10.00;1.00
296;DHT22;132;48.770;9.200;2022-12-22T01:04:26;9.90;1.00
296;DHT22;132;48.770;9.200;2022-12-22T01:07:33;9.90;1.00
296;DHT22;132;48.770;9.200;2022-12-22T01:10:41;10.00;1.00
296;DHT22;132;48.770;9.200;2022-12-22T01:13:48;9.80;1.00
296;DHT22;132;48.770;9.200;2022-12-22T01:16:53;9.70;1.00
296;DHT22;132;48.770;9.200;2022-12-22T01:19:59;9.70;1.00
296;DHT22;132;48.770;9.200;2022-12-22T01:23:09;9.90;1.00
296;DHT22;132;48.770;9.200;2022-12-22T01:29:44;9.70;1.00
296;DHT22;132;48.770;9.200;2022-12-22T01:32:49;10.80;1.00
296;DHT22;132;48.770;9.200;2022-12-22T01:43:40;9.70;1.00
296;DHT22;132;48.770;9.200;2022-12-22T01:46:46;9.80;1.00
296;DHT22;132;48.770;9.200;2022-12-22T01:49:51;10.20;1.00
296;DHT22;132;48.770;9.200;2022-12-22T01:52:57;9.80;1.00
296;DHT22;132;48.770;9.200;2022-12-22T01:58:59;9.70;1.00
296;DHT22;132;48.770;9.200;2022-12-22T02:02:08;9.90;1.00
296;DHT22;132;48.770;9.200;2022-12-22T02:08:27;9.70;1.00
296;DHT22;132;48.770;9.200;2022-12-22T02:15:01;9.80;1.00
296;DHT22;132;48.770;9.200;2022-12-22T02:24:40;9.80;1.00
296;DHT22;132;48.770;9.200;2022-12-22T02:27:48;9.80;1.00
296;DHT22;132;48.770;9.200;2022-12-22T02:30:56;9.80;1.00
296;DHT22;132;48.770;9.200;2022-12-22T02:34:01;10.00;1.00
296;DHT22;132;48.770;9.200;2022-12-22T02:37:38;10.20;1.00
296;DHT22;132;48.770;9.200;2022-12-22T02:47:47;10.00;1.00
296;DHT22;132;48.770;9.200;2022-12-22T02:51:09;10.20;1.00
296;DHT22;132;48.770;9.200;2022-12-22T02:54:17;10.10;1.00
296;DHT22;132;48.770;9.200;2022-12-22T02:57:27;10.10;1.00
296;DHT22;132;48.770;9.200;2022-12-22T03:00:32;10.10;1.00
296;DHT22;132;48.770;9.200;2022-12-22T03:03:38;10.00;1.00
296;DHT22;132;48.770;9.200;2022-12-22T03:06:43;10.30;1.00
296;DHT22;132;48.770;9.200;2022-12-22T03:09:56;11.10;1.00
296;DHT22;132;48.770;9.200;2022-12-22T03:13:02;10.10;1.00
296;DHT22;132;48.770;9.200;2022-12-22T03:19:00;10.10;1.00
296;DHT22;132;48.770;9.200;2022-12-22T03:22:05;10.00;1.00
296;DHT22;132;48.770;9.200;2022-12-22T03:25:11;9.90;1.00
296;DHT22;132;48.770;9.200;2022-12-22T03:28:16;9.80;1.00
296;DHT22;132;48.770;9.200;2022-12-22T03:33:53;9.70;1.00
296;DHT22;132;48.770;9.200;2022-12-22T03:42:48;9.70;1.00
296;DHT22;132;48.770;9.200;2022-12-22T03:51:59;9.70;1.00
296;DHT22;132;48.770;9.200;2022-12-22T03:54:47;10.40;1.00
296;DHT22;132;48.770;9.200;2022-12-22T03:57:35;9.80;1.00
296;DHT22;132;48.770;9.200;2022-12-22T04:03:04;9.90;1.00
296;DHT22;132;48.770;9.200;2022-12-22T04:05:51;9.90;1.00
296;DHT22;132;48.770;9.200;2022-12-22T04:11:30;10.00;1.00
296;DHT22;132;48.770;9.200;2022-12-22T04:17:58;10.00;1.00
296;DHT22;132;48.770;9.200;2022-12-22T04:20:45;11.60;1.00
296;DHT22;132;48.770;9.200;2022-12-22T04:23:34;10.10;1.00
296;DHT22;132;48.770;9.200;2022-12-22T04:26:24;10.10;1.00
296;DHT22;132;48.770;9.200;2022-12-22T04:29:11;10.40;1.00
296;DHT22;132;48.770;9.200;2022-12-22T04:32:01;10.30;1.00
296;DHT22;132;48.770;9.200;2022-12-22T04:37:51;10.20;1.00
296;DHT22;132;48.770;9.200;2022-12-22T04:40:38;11.00;1.00
296;DHT22;132;48.770;9.200;2022-12-22T04:43:28;10.20;1.00
296;DHT22;132;48.770;9.200;2022-12-22T04:46:19;12.00;1.00
296;DHT22;132;48.770;9.200;2022-12-22T04:49:05;10.30;1.00
296;DHT22;132;48.770;9.200;2022-12-22T04:52:10;10.10;1.00
296;DHT22;132;48.770;9.200;2022-12-22T04:54:58;10.00;1.00
296;DHT22;132;48.770;9.200;2022-12-22T04:57:44;10.00;1.00
296;DHT22;132;48.770;9.200;2022-12-22T05:01:08;10.30;1.00
296;DHT22;132;48.770;9.200;2022-12-22T05:03:55;10.10;1.00
296;DHT22;132;48.770;9.200;2022-12-22T05:09:46;10.10;1.00
296;DHT22;132;48.770;9.200;2022-12-22T05:12:33;10.10;1.00
296;DHT22;132;48.770;9.200;2022-12-22T05:24:18;10.30;1.00
296;DHT22;132;48.770;9.200;2022-12-22T05:27:05;10.40;1.00
296;DHT22;132;48.770;9.200;2022-12-22T05:29:52;10.40;1.00
296;DHT22;132;48.770;9.200;2022-12-22T05:32:39;10.40;1.00
296;DHT22;132;48.770;9.200;2022-12-22T05:35:28;10.40;1.00
296;DHT22;132;48.770;9.200;2022-12-22T05:38:14;10.60;1.00
296;DHT22;132;48.770;9.200;2022-12-22T05:43:59;10.40;1.00
296;DHT22;132;48.770;9.200;2022-12-22T05:46:49;10.40;1.00
296;DHT22;132;48.770;9.200;2022-12-22T05:49:37;10.40;1.00
296;DHT22;132;48.770;9.200;2022-12-22T05:52:25;10.40;1.00
296;DHT22;132;48.770;9.200;2022-12-22T05:58:13;7.00;1.00
296;DHT22;132;48.770;9.200;2022-12-22T06:01:00;12.10;1.00
296;DHT22;132;48.770;9.200;2022-12-22T06:03:46;10.40;1.00
296;DHT22;132;48.770;9.200;2022-12-22T06:06:33;10.40;1.00
296;DHT22;132;48.770;9.200;2022-12-22T06:09:24;10.30;1.00
296;DHT22;132;48.770;9.200;2022-12-22T06:12:10;10.40;1.00
296;DHT22;132;48.770;9.200;2022-12-22T06:14:57;10.30;1.00
296;DHT22;132;48.770;9.200;2022-12-22T06:17:43;10.00;1.00
296;DHT22;132;48.770;9.200;2022-12-22T06:20:30;9.90;1.00
296;DHT22;132;48.770;9.200;2022-12-22T06:23:17;9.80;1.00
296;DHT22;132;48.770;9.200;2022-12-22T06:26:03;9.80;1.00
296;DHT22;132;48.770;9.200;2022-12-22T06:28:50;9.80;1.00
296;DHT22;132;48.770;9.200;2022-12-22T06:31:37;9.70;1.00
296;DHT22;132;48.770;9.200;2022-12-22T06:34:24;9.70;1.00
296;DHT22;132;48.770;9.200;2022-12-22T06:37:10;9.80;1.00
296;DHT22;132;48.770;9.200;2022-12-22T06:39:57;9.80;1.00
296;DHT22;132;48.770;9.200;2022-12-22T06:42:50;10.10;1.00
296;DHT22;132;48.770;9.200;2022-12-22T06:45:55;9.80;1.00
296;DHT22;132;48.770;9.200;2022-12-22T06:48:42;10.00;1.00
296;DHT22;132;48.770;9.200;2022-12-22T06:51:28;9.90;1.00
296;DHT22;132;48.770;9.200;2022-12-22T06:54:15;9.90;1.00
296;DHT22;132;48.770;9.200;2022-12-22T06:57:27;9.90;1.00
296;DHT22;132;48.770;9.200;2022-12-22T07:00:17;10.50;1.00
296;DHT22;132;48.770;9.200;2022-12-22T07:03:04;10.20;1.00
296;DHT22;132;48.770;9.200;2022-12-22T07:05:52;10.20;1.00
296;DHT22;132;48.770;9.200;2022-12-22T07:08:39;10.30;1.00
296;DHT22;132;48.770;9.200;2022-12-22T07:11:25;10.30;1.00
296;DHT22;132;48.770;9.200;2022-12-22T07:14:12;10.30;1.00
296;DHT22;132;48.770;9.200;2022-12-22T07:16:59;10.40;1.00
296;DHT22;132;48.770;9.200;2022-12-22T07:19:45;10.40;1.00
296;DHT22;132;48.770;9.200;2022-12-22T07:22:32;10.70;1.00
296;DHT22;132;48.770;9.200;2022-12-22T07:25:18;10.50;1.00
296;DHT22;132;48.770;9.200;2022-12-22T07:28:06;10.50;1.00
296;DHT22;132;48.770;9.200;2022-12-22T07:30:53;10.50;1.00
296;DHT22;132;48.770;9.200;2022-12-22T07:33:40;10.40;1.00
296;DHT22;132;48.770;9.200;2022-12-22T07:36:26;10.50;1.00
296;DHT22;132;48.770;9.200;2022-12-22T07:39:13;10.70;1.00
296;DHT22;132;48.770;9.200;2022-12-22T07:41:59;10.70;1.00
296;DHT22;132;48.770;9.200;2022-12-22T07:45:05;10.90;1.00
296;DHT22;132;48.770;9.200;2022-12-22T07:47:58;10.70;1.00
296;DHT22;132;48.770;9.200;2022-12-22T07:50:46;10.80;1.00
296;DHT22;132;48.770;9.200;2022-12-22T07:53:33;10.60;1.00
296;DHT22;132;48.770;9.200;2022-12-22T07:56:20;11.10;1.00
296;DHT22;132;48.770;9.200;2022-12-22T07:59:07;11.80;1.00
296;DHT22;132;48.770;9.200;2022-12-22T08:01:53;10.50;1.00
296;DHT22;132;48.770;9.200;2022-12-22T08:04:41;10.40;1.00
296;DHT22;132;48.770;9.200;2022-12-22T08:07:27;10.40;1.00
296;DHT22;132;48.770;9.200;2022-12-22T08:10:15;10.60;1.00
296;DHT22;132;48.770;9.200;2022-12-22T08:13:01;10.10;1.00
296;DHT22;132;48.770;9.200;2022-12-22T08:15:48;10.00;1.00
296;DHT22;132;48.770;9.200;2022-12-22T08:18:36;10.00;1.00
296;DHT22;132;48.770;9.200;2022-12-22T08:21:26;10.00;1.00
296;DHT22;132;48.770;9.200;2022-12-22T08:24:13;10.00;1.00
296;DHT22;132;48.770;9.200;2022-12-22T08:27:07;10.00;1.00
296;DHT22;132;48.770;9.200;2022-12-22T08:30:00;10.30;1.00
296;DHT22;132;48.770;9.200;2022-12-22T08:35:35;10.10;1.00
296;DHT22;132;48.770;9.200;2022-12-22T08:38:22;10.00;1.00
296;DHT22;132;48.770;9.200;2022-12-22T08:41:11;10.10;1.00
296;DHT22;132;48.770;9.200;2022-12-22T08:43:59;10.20;1.00
296;DHT22;132;48.770;9.200;2022-12-22T08:46:46;10.40;1.00
296;DHT22;132;48.770;9.200;2022-12-22T08:49:33;10.30;1.00
296;DHT22;132;48.770;9.200;2022-12-22T08:52:19;10.40;1.00
296;DHT22;132;48.770;9.200;2022-12-22T08:55:06;10.40;1.00
296;DHT22;132;48.770;9.200;2022-12-22T08:57:53;10.50;1.00
296;DHT22;132;48.770;9.200;2022-12-22T09:00:40;10.50;1.00
296;DHT22;132;48.770;9.200;2022-12-22T09:03:26;11.00;1.00
296;DHT22;132;48.770;9.200;2022-12-22T09:06:13;10.70;1.00
296;DHT22;132;48.770;9.200;2022-12-22T09:09:01;10.60;1.00
296;DHT22;132;48.770;9.200;2022-12-22T09:11:49;10.70;1.00
296;DHT22;132;48.770;9.200;2022-12-22T09:14:35;10.80;1.00
296;DHT22;132;48.770;9.200;2022-12-22T09:17:22;10.90;1.00
296;DHT22;132;48.770;9.200;2022-12-22T09:20:09;11.10;1.00
296;DHT22;132;48.770;9.200;2022-12-22T09:22:58;11.00;1.00
296;DHT22;132;48.770;9.200;2022-12-22T09:25:45;10.30;1.00
296;DHT22;132;48.770;9.200;2022-12-22T09:28:34;10.70;1.00
296;DHT22;132;48.770;9.200;2022-12-22T09:45:39;10.20;1.00
296;DHT22;132;48.770;9.200;2022-12-22T09:53:58;10.00;1.00
296;DHT22;132;48.770;9.200;2022-12-22T09:56:48;10.10;1.00
296;DHT22;132;48.770;9.200;2022-12-22T09:59:37;10.10;1.00
296;DHT22;132;48.770;9.200;2022-12-22T10:02:42;10.10;1.00
296;DHT22;132;48.770;9.200;2022-12-22T10:09:30;10.40;1.00
296;DHT22;132;48.770;9.200;2022-12-22T10:12:20;10.50;1.00
296;DHT22;132;48.770;9.200;2022-12-22T10:15:10;10.40;1.00
296;DHT22;132;48.770;9.200;2022-12-22T10:18:09;10.50;1.00
296;DHT22;132;48.770;9.200;2022-12-22T10:21:13;10.60;1.00
296;DHT22;132;48.770;9.200;2022-12-22T10:24:14;10.40;1.00
296;DHT22;132;48.770;9.200;2022-12-22T10:27:01;10.90;1.00
296;DHT22;132;48.770;9.200;2022-12-22T10:29:50;10.70;1.00
296;DHT22;132;48.770;9.200;2022-12-22T10:32:37;10.30;1.00
296;DHT22;132;48.770;9.200;2022-12-22T10:35:23;10.80;1.00
296;DHT22;132;48.770;9.200;2022-12-22T10:38:25;10.60;1.00
296;DHT22;132;48.770;9.200;2022-12-22T10:41:19;10.80;1.00
296;DHT22;132;48.770;9.200;2022-12-22T10:44:10;10.80;1.00
296;DHT22;132;48.770;9.200;2022-12-22T10:50:02;10.90;1.00
296;DHT22;132;48.770;9.200;2022-12-22T10:52:59;10.80;1.00
296;DHT22;132;48.770;9.200;2022-12-22T10:56:04;11.10;1.00
296;DHT22;132;48.770;9.200;2022-12-22T10:59:12;10.70;1.00
296;DHT22;132;48.770;9.200;2022-12-22T11:02:35;10.70;1.00
296;DHT22;132;48.770;9.200;2022-12-22T11:05:25;10.70;1.00
296;DHT22;132;48.770;9.200;2022-12-22T11:08:17;10.70;1.00
296;DHT22;132;48.770;9.200;2022-12-22T11:11:13;11.20;1.00
296;DHT22;132;48.770;9.200;2022-12-22T11:14:19;10.70;1.00
296;DHT22;132;48.770;9.200;2022-12-22T11:17:33;10.80;1.00
296;DHT22;132;48.770;9.200;2022-12-22T11:20:54;11.00;1.00
296;DHT22;132;48.770;9.200;2022-12-22T11:26:54;11.10;1.00
296;DHT22;132;48.770;9.200;2022-12-22T11:36:03;11.30;1.00
296;DHT22;132;48.770;9.200;2022-12-22T11:41:56;11.30;1.00
296;DHT22;132;48.770;9.200;2022-12-22T11:51:56;11.40;1.00
296;DHT22;132;48.770;9.200;2022-12-22T11:55:02;11.50;1.00
296;DHT22;132;48.770;9.200;2022-12-22T12:01:33;11.60;1.00
296;DHT22;132;48.770;9.200;2022-12-22T12:07:49;11.60;1.00
296;DHT22;132;48.770;9.200;2022-12-22T12:10:45;11.70;1.00
296;DHT22;132;48.770;9.200;2022-12-22T12:19:38;12.10;1.00
296;DHT22;132;48.770;9.200;2022-12-22T12:23:02;12.10;1.00
296;DHT22;132;48.770;9.200;2022-12-22T12:26:01;12.30;1.00
296;DHT22;132;48.770;9.200;2022-12-22T12:34:55;12.40;1.00
296;DHT22;132;48.770;9.200;2022-12-22T12:37:45;12.40;1.00
296;DHT22;132;48.770;9.200;2022-12-22T12:40:52;12.30;1.00
296;DHT22;132;48.770;9.200;2022-12-22T12:43:41;12.20;1.00
296;DHT22;132;48.770;9.200;2022-12-22T12:47:03;12.10;1.00
296;DHT22;132;48.770;9.200;2022-12-22T13:08:04;11.90;1.00
296;DHT22;132;48.770;9.200;2022-12-22T13:16:32;12.00;1.00
296;DHT22;132;48.770;9.200;2022-12-22T13:19:22;12.00;1.00
296;DHT22;132;48.770;9.200;2022-12-22T13:22:09;12.00;1.00
296;DHT22;132;48.770;9.200;2022-12-22T13:24:58;11.60;1.00
296;DHT22;132;48.770;9.200;2022-12-22T13:27:47;11.80;1.00
296;DHT22;132;48.770;9.200;2022-12-22T13:30:34;11.80;1.00
296;DHT22;132;48.770;9.200;2022-12-22T13:33:24;11.80;1.00
296;DHT22;132;48.770;9.200;2022-12-22T13:36:18;11.70;1.00
296;DHT22;132;48.770;9.200;2022-12-22T13:39:12;11.60;1.00
296;DHT22;132;48.770;9.200;2022-12-22T13:41:59;11.70;1.00
296;DHT22;132;48.770;9.200;2022-12-22T13:44:46;11.70;1.00
296;DHT22;132;48.770;9.200;2022-12-22T13:47:32;11.80;1.00
296;DHT22;132;48.770;9.200;2022-12-22T13:50:26;11.80;1.00
296;DHT22;132;48.770;9.200;2022-12-22T13:53:18;11.90;1.00
296;DHT22;132;48.770;9.200;2022-12-22T13:56:13;12.00;1.00
296;DHT22;132;48.770;9.200;2022-12-22T13:59:01;12.00;1.00
296;DHT22;132;48.770;9.200;2022-12-22T14:01:59;12.00;1.00
296;DHT22;132;48.770;9.200;2022-12-22T14:05:06;12.00;1.00
296;DHT22;132;48.770;9.200;2022-12-22T14:08:00;12.00;1.00
296;DHT22;132;48.770;9.200;2022-12-22T14:10:47;12.00;1.00
296;DHT22;132;48.770;9.200;2022-12-22T14:13:34;12.00;1.00
296;DHT22;132;48.770;9.200;2022-12-22T14:16:25;12.20;1.00
296;DHT22;132;48.770;9.200;2022-12-22T14:19:16;12.20;1.00
296;DHT22;132;48.770;9.200;2022-12-22T14:22:07;12.20;1.00
296;DHT22;132;48.770;9.200;2022-12-22T14:25:02;12.10;1.00
296;DHT22;132;48.770;9.200;2022-12-22T14:27:54;12.00;1.00
296;DHT22;132;48.770;9.200;2022-12-22T14:30:45;12.00;1.00
296;DHT22;132;48.770;9.200;2022-12-22T14:33:33;11.90;1.00
296;DHT22;132;48.770;9.200;2022-12-22T14:36:25;11.80;1.00
296;DHT22;132;48.770;9.200;2022-12-22T14:39:21;11.60;1.00
296;DHT22;132;48.770;9.200;2022-12-22T14:42:12;11.50;1.00
296;DHT22;132;48.770;9.200;2022-12-22T14:44:59;11.50;1.00
296;DHT22;132;48.770;9.200;2022-12-22T14:47:46;11.40;1.00
296;DHT22;132;48.770;9.200;2022-12-22T14:50:33;11.40;1.00
296;DHT22;132;48.770;9.200;2022-12-22T14:53:36;11.50;1.00
296;DHT22;132;48.770;9.200;2022-12-22T14:56:24;11.50;1.00
296;DHT22;132;48.770;9.200;2022-12-22T14:59:23;11.40;1.00
296;DHT22;132;48.770;9.200;2022-12-22T15:02:31;11.60;1.00
296;DHT22;132;48.770;9.200;2022-12-22T15:05:30;11.20;1.00
296;DHT22;132;48.770;9.200;2022-12-22T15:08:39;11.20;1.00
296;DHT22;132;48.770;9.200;2022-12-22T15:11:28;11.70;1.00
296;DHT22;132;48.770;9.200;2022-12-22T15:14:22;11.10;1.00
296;DHT22;132;48.770;9.200;2022-12-22T15:17:22;11.00;1.00
296;DHT22;132;48.770;9.200;2022-12-22T15:20:17;11.00;1.00
296;DHT22;132;48.770;9.200;2022-12-22T15:23:12;11.00;1.00
296;DHT22;132;48.770;9.200;2022-12-22T15:25:59;11.00;1.00
296;DHT22;132;48.770;9.200;2022-12-22T15:28:46;10.90;1.00
296;DHT22;132;48.770;9.200;2022-12-22T15:31:32;11.10;1.00
296;DHT22;132;48.770;9.200;2022-12-22T15:34:27;10.90;1.00
296;DHT22;132;48.770;9.200;2022-12-22T15:37:14;10.90;1.00
296;DHT22;132;48.770;9.200;2022-12-22T15:40:00;11.30;1.00
296;DHT22;132;48.770;9.200;2022-12-22T15:42:48;10.80;1.00
296;DHT22;132;48.770;9.200;2022-12-22T15:48:47;10.70;1.00
296;DHT22;132;48.770;9.200;2022-12-22T15:51:33;11.40;1.00
296;DHT22;132;48.770;9.200;2022-12-22T15:54:20;10.80;1.00
296;DHT22;132;48.770;9.200;2022-12-22T16:00:03;10.60;1.00
296;DHT22;132;48.770;9.200;2022-12-22T16:03:15;10.60;1.00
296;DHT22;132;48.770;9.200;2022-12-22T16:06:20;11.10;1.00
296;DHT22;132;48.770;9.200;2022-12-22T16:09:36;11.00;1.00
296;DHT22;132;48.770;9.200;2022-12-22T16:12:23;10.50;1.00
296;DHT22;132;48.770;9.200;2022-12-22T16:15:36;10.60;1.00
296;DHT22;132;48.770;9.200;2022-12-22T16:21:20;10.40;1.00
296;DHT22;132;48.770;9.200;2022-12-22T16:24:33;10.40;1.00
296;DHT22;132;48.770;9.200;2022-12-22T16:30:00;10.40;1.00
296;DHT22;132;48.770;9.200;2022-12-22T16:32:47;10.30;1.00
296;DHT22;132;48.770;9.200;2022-12-22T16:38:33;10.30;1.00
296;DHT22;132;48.770;9.200;2022-12-22T16:41:23;10.30;1.00
296;DHT22;132;48.770;9.200;2022-12-22T16:44:21;10.30;1.00
296;DHT22;132;48.770;9.200;2022-12-22T16:47:20;10.30;1.00
296;DHT22;132;48.770;9.200;2022-12-22T16:50:21;10.30;1.00
296;DHT22;132;48.770;9.200;2022-12-22T16:53:10;10.30;1.00
296;DHT22;132;48.770;9.200;2022-12-22T16:55:59;10.40;1.00
296;DHT22;132;48.770;9.200;2022-12-22T16:58:58;10.30;1.00
296;DHT22;132;48.770;9.200;2022-12-22T17:01:51;10.40;1.00
296;DHT22;132;48.770;9.200;2022-12-22T17:04:39;10.30;1.00
296;DHT22;132;48.770;9.200;2022-12-22T17:10:25;10.30;1.00
296;DHT22;132;48.770;9.200;2022-12-22T17:13:11;10.30;1.00
296;DHT22;132;48.770;9.200;2022-12-22T17:15:58;10.50;1.00
296;DHT22;132;48.770;9.200;2022-12-22T17:18:50;10.50;1.00
296;DHT22;132;48.770;9.200;2022-12-22T17:22:01;10.10;1.00
296;DHT22;132;48.770;9.200;2022-12-22T17:28:01;10.30;1.00
296;DHT22;132;48.770;9.200;2022-12-22T17:30:47;10.30;1.00
296;DHT22;132;48.770;9.200;2022-12-22T17:36:32;10.20;1.00
296;DHT22;132;48.770;9.200;2022-12-22T17:39:24;10.20;1.00
296;DHT22;132;48.770;9.200;2022-12-22T17:42:16;10.20;1.00
296;DHT22;132;48.770;9.200;2022-12-22T17:45:10;10.20;1.00
296;DHT22;132;48.770;9.200;2022-12-22T17:47:57;10.20;1.00
296;DHT22;132;48.770;9.200;2022-12-22T17:50:46;10.50;1.00
296;DHT22;132;48.770;9.200;2022-12-22T17:53:34;10.10;1.00
296;DHT22;132;48.770;9.200;2022-12-22T17:56:23;10.00;1.00
296;DHT22;132;48.770;9.200;2022-12-22T17:59:13;10.30;1.00
296;DHT22;132;48.770;9.200;2022-12-22T18:02:01;8.00;1.00
296;DHT22;132;48.770;9.200;2022-12-22T18:08:00;10.20;1.00
296;DHT22;132;48.770;9.200;2022-12-22T18:22:57;10.20;1.00
296;DHT22;132;48.770;9.200;2022-12-22T18:29:38;10.10;1.00
296;DHT22;132;48.770;9.200;2022-12-22T18:32:26;10.20;1.00
296;DHT22;132;48.770;9.200;2022-12-22T18:35:14;10.10;1.00
296;DHT22;132;48.770;9.200;2022-12-22T18:38:05;10.20;1.00
296;DHT22;132;48.770;9.200;2022-12-22T18:40:55;10.20;1.00
296;DHT22;132;48.770;9.200;2022-12-22T18:44:11;10.20;1.00
296;DHT22;132;48.770;9.200;2022-12-22T18:47:00;10.20;1.00
296;DHT22;132;48.770;9.200;2022-12-22T18:49:47;10.20;1.00
296;DHT22;132;48.770;9.200;2022-12-22T18:52:40;10.10;1.00
296;DHT22;132;48.770;9.200;2022-12-22T18:55:30;10.80;1.00
296;DHT22;132;48.770;9.200;2022-12-22T18:58:18;10.20;1.00
296;DHT22;132;48.770;9.200;2022-12-22T19:01:25;10.20;1.00
296;DHT22;132;48.770;9.200;2022-12-22T19:04:15;10.20;1.00
296;DHT22;132;48.770;9.200;2022-12-22T19:07:16;10.20;1.00
296;DHT22;132;48.770;9.200;2022-12-22T19:12:55;10.20;1.00
296;DHT22;132;48.770;9.200;2022-12-22T19:15:44;10.20;1.00
296;DHT22;132;48.770;9.200;2022-12-22T19:18:31;10.20;1.00
296;DHT22;132;48.770;9.200;2022-12-22T19:21:19;12.30;1.00
296;DHT22;132;48.770;9.200;2022-12-22T19:24:06;10.20;1.00
296;DHT22;132;48.770;9.200;2022-12-22T19:26:53;10.30;1.00
296;DHT22;132;48.770;9.200;2022-12-22T19:29:40;10.40;1.00
296;DHT22;132;48.770;9.200;2022-12-22T19:32:29;11.10;1.00
296;DHT22;132;48.770;9.200;2022-12-22T19:35:19;10.30;1.00
296;DHT22;132;48.770;9.200;2022-12-22T19:38:17;10.30;1.00
296;DHT22;132;48.770;9.200;2022-12-22T19:44:22;10.40;1.00
296;DHT22;132;48.770;9.200;2022-12-22T19:47:18;10.20;1.00
296;DHT22;132;48.770;9.200;2022-12-22T19:50:16;10.40;1.00
296;DHT22;132;48.770;9.200;2022-12-22T19:53:15;10.40;1.00
296;DHT22;132;48.770;9.200;2022-12-22T19:56:02;10.90;1.00
296;DHT22;132;48.770;9.200;2022-12-22T19:58:50;10.40;1.00
296;DHT22;132;48.770;9.200;2022-12-22T20:01:37;10.30;1.00
296;DHT22;132;48.770;9.200;2022-12-22T20:04:24;10.40;1.00
296;DHT22;132;48.770;9.200;2022-12-22T20:07:15;10.60;1.00
296;DHT22;132;48.770;9.200;2022-12-22T20:10:08;10.40;1.00
296;DHT22;132;48.770;9.200;2022-12-22T20:13:03;10.30;1.00
296;DHT22;132;48.770;9.200;2022-12-22T20:18:58;10.30;1.00
296;DHT22;132;48.770;9.200;2022-12-22T20:21:46;10.30;1.00
296;DHT22;132;48.770;9.200;2022-12-22T20:24:39;10.30;1.00
296;DHT22;132;48.770;9.200;2022-12-22T20:33:25;10.20;1.00
296;DHT22;132;48.770;9.200;2022-12-22T20:36:22;11.10;1.00
296;DHT22;132;48.770;9.200;2022-12-22T20:39:13;10.10;1.00
296;DHT22;132;48.770;9.200;2022-12-22T20:42:03;10.10;1.00
296;DHT22;132;48.770;9.200;2022-12-22T20:44:52;10.10;1.00
296;DHT22;132;48.770;9.200;2022-12-22T20:47:42;10.00;1.00
296;DHT22;132;48.770;9.200;2022-12-22T20:50:36;10.00;1.00
296;DHT22;132;48.770;9.200;2022-12-22T20:53:23;10.40;1.00
296;DHT22;132;48.770;9.200;2022-12-22T20:58:58;10.00;1.00
296;DHT22;132;48.770;9.200;2022-12-22T21:01:47;10.50;1.00
296;DHT22;132;48.770;9.200;2022-12-22T21:04:37;11.40;1.00
296;DHT22;132;48.770;9.200;2022-12-22T21:07:24;10.10;1.00
296;DHT22;132;48.770;9.200;2022-12-22T21:10:22;10.60;1.00
296;DHT22;132;48.770;9.200;2022-12-22T21:13:11;10.10;1.00
296;DHT22;132;48.770;9.200;2022-12-22T21:16:00;10.10;1.00
296;DHT22;132;48.770;9.200;2022-12-22T21:18:49;10.10;1.00
296;DHT22;132;48.770;9.200;2022-12-22T21:21:36;10.20;1.00
296;DHT22;132;48.770;9.200;2022-12-22T21:27:22;10.10;1.00
296;DHT22;132;48.770;9.200;2022-12-22T21:30:33;9.90;1.00
296;DHT22;132;48.770;9.200;2022-12-22T21:33:23;10.00;1.00
296;DHT22;132;48.770;9.200;2022-12-22T21:36:36;10.10;1.00
296;DHT22;132;48.770;9.200;2022-12-22T21:39:37;10.00;1.00
296;DHT22;132;48.770;9.200;2022-12-22T21:42:24;10.00;1.00
296;DHT22;132;48.770;9.200;2022-12-22T21:45:15;10.00;1.00
296;DHT22;132;48.770;9.200;2022-12-22T21:48:02;10.00;1.00
296;DHT22;132;48.770;9.200;2022-12-22T21:50:51;9.90;1.00
296;DHT22;132;48.770;9.200;2022-12-22T21:53:37;9.90;1.00
296;DHT22;132;48.770;9.200;2022-12-22T21:56:24;9.90;1.00
296;DHT22;132;48.770;9.200;2022-12-22T22:30:44;9.60;1.00
296;DHT22;132;48.770;9.200;2022-12-22T22:33:53;9.40;1.00
296;DHT22;132;48.770;9.200;2022-12-22T22:37:52;9.50;1.00
296;DHT22;132;48.770;9.200;2022-12-22T22:56:11;10.50;1.00
296;DHT22;132;48.770;9.200;2022-12-22T22:59:05;9.60;1.00
296;DHT22;132;48.770;9.200;2022-12-22T23:01:52;9.50;1.00
296;DHT22;132;48.770;9.200;2022-12-22T23:07:36;9.60;1.00
296;DHT22;132;48.770;9.200;2022-12-22T23:10:23;9.20;1.00
296;DHT22;132;48.770;9.200;2022-12-22T23:13:10;9.60;1.00
296;DHT22;132;48.770;9.200;2022-12-22T23:16:01;9.90;1.00
296;DHT22;132;48.770;9.200;2022-12-22T23:19:03;9.40;1.00
296;DHT22;132;48.770;9.200;2022-12-22T23:21:50;9.50;1.00
296;DHT22;132;48.770;9.200;2022-12-22T23:24:36;10.80;1.00
296;DHT22;132;48.770;9.200;2022-12-22T23:27:23;9.60;1.00
296;DHT22;132;48.770;9.200;2022-12-22T23:30:10;9.60;1.00
296;DHT22;132;48.770;9.200;2022-12-22T23:32:57;9.60;1.00
296;DHT22;132;48.770;9.200;2022-12-22T23:35:48;9.50;1.00
296;DHT22;132;48.770;9.200;2022-12-22T23:38:35;9.50;1.00
296;DHT22;132;48.770;9.200;2022-12-22T23:41:22;9.50;1.00
296;DHT22;132;48.770;9.200;2022-12-22T23:44:08;9.90;1.00
296;DHT22;132;48.770;9.200;2022-12-22T23:46:55;9.60;1.00
296;DHT22;132;48.770;9.200;2022-12-22T23:49:42;9.60;1.00
296;DHT22;132;48.770;9.200;2022-12-22T23:52:28;9.80;1.00
296;DHT22;132;48.770;9.200;2022-12-22T23:58:07;9.60;1.00
